createdAt,value
2017-11-07T00:00:36.591Z,29.60
2017-11-07T00:03:04.144Z,28.97
2017-11-07T00:05:31.740Z,24.63
2017-11-07T00:07:59.294Z,24.40
2017-11-07T00:10:27.889Z,25.90
2017-11-07T00:12:55.444Z,25.53
2017-11-07T00:15:22.993Z,33.83
2017-11-07T00:17:50.569Z,25.63
2017-11-07T00:20:18.110Z,25.70
2017-11-07T00:22:45.693Z,25.57
2017-11-07T00:25:13.232Z,25.43
2017-11-07T00:27:40.838Z,24.67
2017-11-07T00:30:08.383Z,24.70
2017-11-07T00:32:36.222Z,26.40
2017-11-07T00:35:03.787Z,25.77
2017-11-07T00:37:31.762Z,23.40
2017-11-07T00:39:59.333Z,25.67
2017-11-07T00:42:26.918Z,24.03
2017-11-07T00:44:54.484Z,27.07
2017-11-07T00:47:22.031Z,24.43
2017-11-07T00:49:49.995Z,25.30
2017-11-07T00:52:17.555Z,27.20
2017-11-07T00:54:45.102Z,26.70
2017-11-07T00:57:12.677Z,24.43
2017-11-07T00:59:40.227Z,20.87
2017-11-07T01:02:07.819Z,23.50
2017-11-07T01:04:35.359Z,23.67
2017-11-07T01:07:02.941Z,22.57
2017-11-07T01:09:30.477Z,23.17
2017-11-07T01:11:58.024Z,23.33
2017-11-07T01:14:25.590Z,23.27
2017-11-07T01:16:53.161Z,21.60
2017-11-07T01:19:20.728Z,25.10
2017-11-07T01:21:48.340Z,21.23
2017-11-07T01:24:16.215Z,22.97
2017-11-07T01:26:43.764Z,20.97
2017-11-07T01:29:11.320Z,24.33
2017-11-07T01:31:38.906Z,19.03
2017-11-07T01:34:06.466Z,23.80
2017-11-07T01:36:34.073Z,26.43
2017-11-07T01:39:01.616Z,22.33
2017-11-07T01:41:29.578Z,21.57
2017-11-07T01:43:57.134Z,20.57
2017-11-07T01:46:24.667Z,20.20
2017-11-07T01:48:52.223Z,20.53
2017-11-07T01:51:19.767Z,19.13
2017-11-07T01:53:47.327Z,20.73
2017-11-07T01:56:14.886Z,18.93
2017-11-07T01:58:42.788Z,24.57
2017-11-07T02:01:10.318Z,20.30
2017-11-07T02:03:37.854Z,23.87
2017-11-07T02:06:05.444Z,17.37
2017-11-07T02:08:33.000Z,20.20
2017-11-07T02:11:00.824Z,18.70
2017-11-07T02:13:28.364Z,18.80
2017-11-07T02:15:55.940Z,18.73
2017-11-07T02:18:23.588Z,17.47
2017-11-07T02:20:51.150Z,16.43
2017-11-07T02:23:18.870Z,18.10
2017-11-07T02:25:46.392Z,13.83
2017-11-07T02:28:14.319Z,19.13
2017-11-07T02:30:41.870Z,14.33
2017-11-07T02:33:09.424Z,15.27
2017-11-07T02:35:37.010Z,14.70
2017-11-07T02:38:04.561Z,15.10
2017-11-07T02:40:32.120Z,16.17
2017-11-07T02:42:59.664Z,13.63
2017-11-07T02:45:27.544Z,12.53
2017-11-07T02:47:55.095Z,13.30
2017-11-07T02:50:22.677Z,14.50
2017-11-07T02:52:50.244Z,13.87
2017-11-07T02:55:17.927Z,14.70
2017-11-07T02:57:46.171Z,11.93
2017-11-07T03:00:13.722Z,11.90
2017-11-07T03:02:41.275Z,12.20
2017-11-07T03:05:08.829Z,12.97
2017-11-07T03:07:36.367Z,13.20
2017-11-07T03:10:04.270Z,11.37
2017-11-07T03:12:31.813Z,10.63
2017-11-07T03:14:59.364Z,12.27
2017-11-07T03:17:26.923Z,11.37
2017-11-07T03:19:54.552Z,11.97
2017-11-07T03:22:22.331Z,10.77
2017-11-07T03:24:49.858Z,12.60
2017-11-07T03:27:17.552Z,9.70
2017-11-07T03:29:45.113Z,12.33
2017-11-07T03:32:13.039Z,10.77
2017-11-07T03:34:40.580Z,10.70
2017-11-07T03:37:08.109Z,12.17
2017-11-07T03:39:35.677Z,9.27
2017-11-07T03:42:03.224Z,11.67
2017-11-07T03:44:31.031Z,9.80
2017-11-07T03:46:58.586Z,13.20
2017-11-07T03:49:26.134Z,11.90
2017-11-07T03:51:53.698Z,10.93
2017-11-07T03:54:21.242Z,10.80
2017-11-07T03:56:48.808Z,11.20
2017-11-07T03:59:16.362Z,11.67
2017-11-07T04:01:44.256Z,10.67
2017-11-07T04:04:11.807Z,11.00
2017-11-07T04:06:39.364Z,10.40
2017-11-07T04:09:07.148Z,11.53
2017-11-07T04:11:34.676Z,8.87
2017-11-07T04:14:02.240Z,11.10
2017-11-07T04:16:29.853Z,9.50
2017-11-07T04:18:57.734Z,11.20
2017-11-07T04:21:25.271Z,9.97
2017-11-07T04:23:52.818Z,10.87
2017-11-07T04:26:20.386Z,13.20
2017-11-07T04:28:47.948Z,15.13
2017-11-07T04:31:15.640Z,14.97
2017-11-07T04:33:43.163Z,9.50
2017-11-07T04:36:11.017Z,11.00
2017-11-07T04:38:38.555Z,10.60
2017-11-07T04:41:06.096Z,9.83
2017-11-07T04:43:33.656Z,9.30
2017-11-07T04:46:01.240Z,9.90
2017-11-07T04:48:28.851Z,9.73
2017-11-07T04:50:56.453Z,8.47
2017-11-07T04:53:24.539Z,10.50
2017-11-07T04:55:52.084Z,13.67
2017-11-07T04:58:19.619Z,8.90
2017-11-07T05:00:47.177Z,10.50
2017-11-07T05:03:14.721Z,11.83
2017-11-07T05:05:43.045Z,9.87
2017-11-07T05:08:10.591Z,9.90
2017-11-07T05:10:38.485Z,9.93
2017-11-07T05:13:06.048Z,12.10
2017-11-07T05:15:33.591Z,9.00
2017-11-07T05:18:01.179Z,8.87
2017-11-07T05:20:28.740Z,10.67
2017-11-07T05:22:56.602Z,10.33
2017-11-07T05:25:24.285Z,8.70
2017-11-07T05:27:51.834Z,9.20
2017-11-07T05:30:19.377Z,9.73
2017-11-07T05:32:46.980Z,11.70
2017-11-07T05:35:14.594Z,8.47
2017-11-07T05:37:42.138Z,9.00
2017-11-07T05:40:09.714Z,11.07
2017-11-07T05:42:37.262Z,9.70
2017-11-07T05:45:04.806Z,9.43
2017-11-07T05:47:32.379Z,8.77
2017-11-07T05:49:59.910Z,9.73
2017-11-07T05:52:27.467Z,8.50
2017-11-07T05:54:55.008Z,8.83
2017-11-07T05:57:22.844Z,8.97
2017-11-07T05:59:50.447Z,10.10
2017-11-07T06:02:18.099Z,8.77
2017-11-07T06:04:45.659Z,9.20
2017-11-07T06:07:13.260Z,11.07
2017-11-07T06:09:40.811Z,7.53
2017-11-07T06:12:08.333Z,6.90
2017-11-07T06:14:35.902Z,16.80
2017-11-07T06:17:03.435Z,9.20
2017-11-07T06:19:30.995Z,9.77
2017-11-07T06:21:58.551Z,7.73
2017-11-07T06:24:26.092Z,8.40
2017-11-07T06:26:53.664Z,9.77
2017-11-07T06:29:21.203Z,10.07
2017-11-07T06:31:48.755Z,10.20
2017-11-07T06:34:16.364Z,9.10
2017-11-07T06:36:44.045Z,9.10
2017-11-07T06:39:11.610Z,10.77
2017-11-07T06:41:39.269Z,14.50
2017-11-07T06:44:07.115Z,12.30
2017-11-07T06:46:34.655Z,12.87
2017-11-07T06:49:02.541Z,19.07
2017-11-07T06:51:30.477Z,59.90
2017-11-07T06:53:58.030Z,15.57
2017-11-07T06:56:25.617Z,29.87
2017-11-07T06:58:53.159Z,13.27
2017-11-07T07:01:21.144Z,15.53
2017-11-07T07:03:48.691Z,13.83
2017-11-07T07:06:16.249Z,9.40
2017-11-07T07:08:43.827Z,10.03
2017-11-07T07:11:11.437Z,9.63
2017-11-07T07:13:38.994Z,15.80
2017-11-07T07:16:06.533Z,12.20
2017-11-07T07:18:34.529Z,12.40
2017-11-07T07:21:02.083Z,13.07
2017-11-07T07:23:29.633Z,15.27
2017-11-07T07:25:57.179Z,13.13
2017-11-07T07:28:24.719Z,13.07
2017-11-07T07:30:52.269Z,15.00
2017-11-07T07:33:19.803Z,14.60
2017-11-07T07:35:47.385Z,13.20
2017-11-07T07:38:15.041Z,16.60
2017-11-07T07:40:42.618Z,16.20
2017-11-07T07:43:10.186Z,13.80
2017-11-07T07:45:37.731Z,14.73
2017-11-07T07:48:05.331Z,18.60
2017-11-07T07:50:32.880Z,16.60
2017-11-07T07:53:00.502Z,21.27
2017-11-07T07:55:28.059Z,23.10
2017-11-07T07:57:55.619Z,20.27
2017-11-07T08:00:23.180Z,23.30
2017-11-07T08:02:50.735Z,21.30
2017-11-07T08:05:18.329Z,20.63
2017-11-07T08:07:45.863Z,22.50
2017-11-07T08:10:13.400Z,23.43
2017-11-07T08:12:40.964Z,25.77
2017-11-07T08:15:08.485Z,27.60
2017-11-07T08:17:36.036Z,26.07
2017-11-07T08:20:03.571Z,27.30
2017-11-07T08:22:31.138Z,26.67
2017-11-07T08:24:58.691Z,34.60
2017-11-07T08:27:26.551Z,28.40
2017-11-07T08:29:54.129Z,24.83
2017-11-07T08:32:21.677Z,25.80
2017-11-07T08:34:49.247Z,31.23
2017-11-07T08:37:16.780Z,27.23
2017-11-07T08:39:44.346Z,27.53
2017-11-07T08:42:11.933Z,30.80
2017-11-07T08:44:39.520Z,30.40
2017-11-07T08:47:07.068Z,30.77
2017-11-07T08:49:34.638Z,34.93
2017-11-07T08:52:02.212Z,29.47
2017-11-07T08:54:29.772Z,33.63
2017-11-07T08:56:57.360Z,28.50
2017-11-07T08:59:24.906Z,31.00
2017-11-07T09:01:52.475Z,30.47
2017-11-07T09:04:20.012Z,31.70
2017-11-07T09:06:47.916Z,32.50
2017-11-07T09:09:15.489Z,30.83
2017-11-07T09:11:43.182Z,30.67
2017-11-07T09:14:10.748Z,31.87
2017-11-07T09:16:38.314Z,34.80
2017-11-07T09:19:06.123Z,30.20
2017-11-07T09:21:33.702Z,29.00
2017-11-07T09:24:01.283Z,33.20
2017-11-07T09:26:29.026Z,35.00
2017-11-07T09:28:56.594Z,30.10
2017-11-07T09:31:24.341Z,32.83
2017-11-07T09:33:51.880Z,34.67
2017-11-07T09:36:19.459Z,28.23
2017-11-07T09:38:47.034Z,34.30
2017-11-07T09:41:14.582Z,31.40
2017-11-07T09:43:42.462Z,31.97
2017-11-07T09:46:10.000Z,33.60
2017-11-07T09:48:37.565Z,35.90
2017-11-07T09:51:05.125Z,39.10
2017-11-07T09:53:32.675Z,28.43
2017-11-07T09:56:00.255Z,34.37
2017-11-07T09:58:27.823Z,35.80
2017-11-07T10:00:55.678Z,34.50
2017-11-07T10:03:23.642Z,33.60
2017-11-07T10:05:51.195Z,34.70
2017-11-07T10:08:18.777Z,31.97
2017-11-07T10:10:46.609Z,37.40
2017-11-07T10:13:14.229Z,29.77
2017-11-07T10:15:41.790Z,25.33
2017-11-07T10:18:09.498Z,31.70
2017-11-07T10:20:37.043Z,32.20
2017-11-07T10:23:05.249Z,32.50
2017-11-07T10:25:32.802Z,31.47
2017-11-07T10:28:00.357Z,27.97
2017-11-07T10:30:27.919Z,30.50
2017-11-07T10:32:55.469Z,37.33
2017-11-07T10:35:23.204Z,30.63
2017-11-07T10:37:50.735Z,36.73
2017-11-07T10:40:18.328Z,34.17
2017-11-07T10:42:45.889Z,33.80
2017-11-07T10:45:13.449Z,38.03
2017-11-07T10:47:41.055Z,37.37
2017-11-07T10:50:08.631Z,29.03
2017-11-07T10:52:36.190Z,30.63
2017-11-07T10:55:03.733Z,33.80
2017-11-07T10:57:31.315Z,35.60
2017-11-07T10:59:59.248Z,29.90
2017-11-07T11:02:26.789Z,32.80
2017-11-07T11:04:54.380Z,33.10
2017-11-07T11:07:21.921Z,27.33
2017-11-07T11:09:50.873Z,33.23
2017-11-07T11:12:18.412Z,32.20
2017-11-07T11:14:46.358Z,28.93
2017-11-07T11:17:13.922Z,32.77
2017-11-07T11:19:41.471Z,36.50
2017-11-07T11:22:09.041Z,34.30
2017-11-07T11:24:36.585Z,33.73
2017-11-07T11:27:04.159Z,33.87
2017-11-07T11:29:31.693Z,36.63
2017-11-07T11:31:59.272Z,38.40
2017-11-07T11:34:26.832Z,33.53
2017-11-07T11:36:54.379Z,33.70
2017-11-07T11:39:21.941Z,32.47
2017-11-07T11:41:49.488Z,39.50
2017-11-07T11:44:17.071Z,38.30
2017-11-07T11:46:44.605Z,36.50
2017-11-07T11:49:14.891Z,32.17
2017-11-07T11:51:42.480Z,32.60
2017-11-07T11:54:10.027Z,34.87
2017-11-07T11:56:37.589Z,34.30
2017-11-07T11:59:05.132Z,38.50
2017-11-07T12:01:32.713Z,35.77
2017-11-07T12:04:00.261Z,36.30
2017-11-07T12:06:27.825Z,40.93
2017-11-07T12:08:55.357Z,37.63
2017-11-07T12:11:23.075Z,33.30
2017-11-07T12:13:50.639Z,36.10
2017-11-07T12:16:18.201Z,36.87
2017-11-07T12:18:45.802Z,33.30
2017-11-07T12:21:13.345Z,37.80
2017-11-07T12:23:40.919Z,30.73
2017-11-07T12:26:08.461Z,35.93
2017-11-07T12:28:36.056Z,34.93
2017-11-07T12:31:03.604Z,33.03
2017-11-07T12:33:31.159Z,33.50
2017-11-07T12:35:58.919Z,40.77
2017-11-07T12:38:26.463Z,36.97
2017-11-07T12:40:54.043Z,35.53
2017-11-07T12:43:21.597Z,37.53
2017-11-07T12:45:49.183Z,35.20
2017-11-07T12:48:16.835Z,34.80
2017-11-07T12:50:56.340Z,33.60
2017-11-07T12:53:23.903Z,31.33
2017-11-07T12:55:51.469Z,38.60
2017-11-07T12:58:19.045Z,37.37
2017-11-07T13:00:46.588Z,38.57
2017-11-07T13:03:14.161Z,34.93
2017-11-07T13:05:41.704Z,40.17
2017-11-07T13:08:09.270Z,32.70
2017-11-07T13:10:36.834Z,36.80
2017-11-07T13:13:04.382Z,36.67
2017-11-07T13:15:31.950Z,34.27
2017-11-07T13:17:59.497Z,34.30
2017-11-07T13:20:27.163Z,32.30
2017-11-07T13:22:54.733Z,35.47
2017-11-07T13:25:22.307Z,36.50
2017-11-07T13:27:49.863Z,40.67
2017-11-07T13:30:17.428Z,32.70
2017-11-07T13:32:45.001Z,36.57
2017-11-07T13:35:12.551Z,31.77
2017-11-07T13:37:40.111Z,40.03
2017-11-07T13:40:07.664Z,37.43
2017-11-07T13:42:35.229Z,36.03
2017-11-07T13:45:02.791Z,33.90
2017-11-07T13:47:30.385Z,37.73
2017-11-07T13:49:57.945Z,37.70
2017-11-07T13:52:25.492Z,36.80
2017-11-07T13:54:53.080Z,35.40
2017-11-07T13:57:20.623Z,34.20
2017-11-07T13:59:48.199Z,38.10
2017-11-07T14:02:15.752Z,35.20
2017-11-07T14:04:43.345Z,33.77
2017-11-07T14:07:11.009Z,33.43
2017-11-07T14:09:38.597Z,37.87
2017-11-07T14:12:06.218Z,39.30
2017-11-07T14:14:33.791Z,38.93
2017-11-07T14:17:01.384Z,39.87
2017-11-07T14:19:28.910Z,38.00
2017-11-07T14:21:56.793Z,37.33
2017-11-07T14:24:24.332Z,34.93
2017-11-07T14:26:51.883Z,37.90
2017-11-07T14:29:19.432Z,37.23
2017-11-07T14:31:46.970Z,35.57
2017-11-07T14:34:14.547Z,33.37
2017-11-07T14:36:42.110Z,33.40
2017-11-07T14:39:09.705Z,38.80
2017-11-07T14:41:37.267Z,39.80
2017-11-07T14:44:04.822Z,32.80
2017-11-07T14:46:32.414Z,34.73
2017-11-07T14:48:59.973Z,39.60
2017-11-07T14:51:27.582Z,34.27
2017-11-07T14:53:55.128Z,34.07
2017-11-07T14:56:22.836Z,34.07
2017-11-07T14:58:50.367Z,32.70
2017-11-07T15:01:17.909Z,36.33
2017-11-07T15:03:45.494Z,33.87
2017-11-07T15:06:13.040Z,34.93
2017-11-07T15:08:40.618Z,35.17
2017-11-07T15:11:08.180Z,59.33
2017-11-07T15:13:35.732Z,49.90
2017-11-07T15:16:03.464Z,39.10
2017-11-07T15:18:31.006Z,43.73
2017-11-07T15:20:58.584Z,37.17
2017-11-07T15:23:26.133Z,35.90
2017-11-07T15:25:53.725Z,37.67
2017-11-07T15:28:21.299Z,40.33
2017-11-07T15:30:48.841Z,43.10
2017-11-07T15:33:16.434Z,34.53
2017-11-07T15:35:43.985Z,39.27
2017-11-07T15:38:11.566Z,40.80
2017-11-07T15:40:39.130Z,42.13
2017-11-07T15:43:06.707Z,37.10
2017-11-07T15:45:34.441Z,36.03
2017-11-07T15:48:01.991Z,37.67
2017-11-07T15:50:29.560Z,33.07
2017-11-07T15:52:57.159Z,35.47
2017-11-07T15:55:24.903Z,40.30
2017-11-07T15:57:52.496Z,41.70
2017-11-07T16:00:20.676Z,35.07
2017-11-07T16:02:48.259Z,46.23
2017-11-07T16:05:15.815Z,38.40
2017-11-07T16:07:43.407Z,39.13
2017-11-07T16:10:11.066Z,38.47
2017-11-07T16:12:38.621Z,36.87
2017-11-07T16:15:06.299Z,38.20
2017-11-07T16:17:33.872Z,41.40
2017-11-07T16:20:01.453Z,37.83
2017-11-07T16:22:29.159Z,38.43
2017-11-07T16:24:56.913Z,34.73
2017-11-07T16:27:24.465Z,34.90
2017-11-07T16:29:52.033Z,34.47
2017-11-07T16:32:19.806Z,35.53
2017-11-07T16:34:47.364Z,33.57
2017-11-07T16:37:14.979Z,34.00
2017-11-07T16:39:42.709Z,36.17
2017-11-07T16:42:12.798Z,39.17
2017-11-07T16:44:40.419Z,38.27
2017-11-07T16:47:07.993Z,39.20
2017-11-07T16:49:36.247Z,35.20
2017-11-07T16:52:03.827Z,38.20
2017-11-07T16:54:31.420Z,36.60
2017-11-07T16:56:59.112Z,38.50
2017-11-07T16:59:27.398Z,38.57
2017-11-07T17:01:54.956Z,49.30
2017-11-07T17:04:22.551Z,57.00
2017-11-07T17:06:50.112Z,51.30
2017-11-07T17:09:17.698Z,44.37
2017-11-07T17:11:45.283Z,44.23
2017-11-07T17:14:12.888Z,42.40
2017-11-07T17:16:40.437Z,42.80
2017-11-07T17:19:08.377Z,46.50
2017-11-07T17:21:35.959Z,49.37
2017-11-07T17:24:03.544Z,44.63
2017-11-07T17:26:31.146Z,45.70
2017-11-07T17:28:58.726Z,41.50
2017-11-07T17:31:26.343Z,41.57
2017-11-07T17:33:53.951Z,39.23
2017-11-07T17:36:21.517Z,48.77
2017-11-07T17:38:49.113Z,41.70
2017-11-07T17:41:16.865Z,45.27
2017-11-07T17:43:44.443Z,40.87
2017-11-07T17:46:12.026Z,43.67
2017-11-07T17:48:39.636Z,38.83
2017-11-07T17:51:07.202Z,40.90
2017-11-07T17:53:34.791Z,37.33
2017-11-07T17:56:02.392Z,48.73
2017-11-07T17:58:30.661Z,38.63
2017-11-07T18:01:02.032Z,35.07
2017-11-07T18:03:29.607Z,37.80
2017-11-07T18:05:57.614Z,42.20
2017-11-07T18:08:25.389Z,39.63
2017-11-07T18:10:52.991Z,40.83
2017-11-07T18:13:20.927Z,44.63
2017-11-07T18:15:48.510Z,41.63
2017-11-07T18:18:16.214Z,46.60
2017-11-07T18:20:43.828Z,42.63
2017-11-07T18:23:11.427Z,40.13
2017-11-07T18:25:39.021Z,42.53
2017-11-07T18:28:06.788Z,42.17
2017-11-07T18:30:34.408Z,43.70
2017-11-07T18:33:02.146Z,43.53
2017-11-07T18:35:29.740Z,43.83
2017-11-07T18:37:57.678Z,46.50
2017-11-07T18:40:25.276Z,41.07
2017-11-07T18:42:52.999Z,47.63
2017-11-07T18:45:20.617Z,48.17
2017-11-07T18:47:48.292Z,46.83
2017-11-07T18:50:15.913Z,46.60
2017-11-07T18:52:43.533Z,48.37
2017-11-07T18:55:11.213Z,44.00
2017-11-07T18:57:38.892Z,46.07
2017-11-07T19:00:06.832Z,47.67
2017-11-07T19:02:34.596Z,45.77
2017-11-07T19:05:02.940Z,46.00
2017-11-07T19:07:30.680Z,46.00
2017-11-07T19:09:59.012Z,49.23
2017-11-07T19:12:26.796Z,48.93
2017-11-07T19:14:54.661Z,47.80
2017-11-07T19:17:22.642Z,45.97
2017-11-07T19:19:50.572Z,50.47
2017-11-07T19:22:18.548Z,50.80
2017-11-07T19:24:46.340Z,50.03
2017-11-07T19:27:14.069Z,44.50
2017-11-07T19:29:41.858Z,49.57
2017-11-07T19:32:09.562Z,46.53
2017-11-07T19:34:38.013Z,46.80
2017-11-07T19:37:05.754Z,45.43
2017-11-07T19:39:33.646Z,44.90
2017-11-07T19:42:01.389Z,46.60
2017-11-07T19:44:29.181Z,54.90
2017-11-07T19:46:57.017Z,48.40
2017-11-07T19:49:25.668Z,49.27
2017-11-07T19:51:53.906Z,54.07
2017-11-07T19:54:21.980Z,48.60
2017-11-07T19:56:50.150Z,45.03
2017-11-07T19:59:18.014Z,45.40
2017-11-07T20:01:45.985Z,48.13
2017-11-07T20:04:13.863Z,49.80
2017-11-07T20:19:46.912Z,43.00
2017-11-07T20:22:15.645Z,48.37
2017-11-07T20:24:43.468Z,49.00
2017-11-07T20:40:16.491Z,49.23
2017-11-07T20:42:44.728Z,46.07
2017-11-07T20:45:12.530Z,44.73
2017-11-07T20:47:40.339Z,46.83
2017-11-07T20:50:08.257Z,46.17
2017-11-07T20:52:36.415Z,43.17
2017-11-07T20:55:04.282Z,41.20
2017-11-07T20:57:31.965Z,45.77
2017-11-07T20:59:59.768Z,46.83
2017-11-07T21:02:27.539Z,40.67
2017-11-07T21:04:55.635Z,42.60
2017-11-07T21:07:23.377Z,45.87
2017-11-07T21:09:51.126Z,44.23
2017-11-07T21:12:20.442Z,48.70
2017-11-07T21:14:48.140Z,45.07
2017-11-07T21:17:15.864Z,43.57
2017-11-07T21:19:43.529Z,44.13
2017-11-07T21:22:11.330Z,44.73
2017-11-07T21:24:39.017Z,43.83
2017-11-07T21:27:06.660Z,45.23
2017-11-07T21:29:34.334Z,42.97
2017-11-07T21:32:01.903Z,41.40
2017-11-07T21:34:32.694Z,39.97
2017-11-07T21:37:00.320Z,46.57
2017-11-07T21:39:27.973Z,43.00
2017-11-07T21:41:55.522Z,46.73
2017-11-07T21:44:23.183Z,37.80
2017-11-07T21:46:50.825Z,42.33
2017-11-07T21:49:18.409Z,47.67
2017-11-07T21:51:46.319Z,43.90
2017-11-07T21:54:15.275Z,43.27
2017-11-07T21:56:42.836Z,42.47
2017-11-07T21:59:10.521Z,41.67
2017-11-07T22:01:38.077Z,45.37
2017-11-07T22:04:05.983Z,43.40
2017-11-07T22:06:33.549Z,45.27
2017-11-07T22:09:01.206Z,39.83
2017-11-07T22:11:29.866Z,44.70
2017-11-07T22:13:57.445Z,48.67
2017-11-07T22:16:25.025Z,44.40
2017-11-07T22:18:53.600Z,43.97
2017-11-07T22:21:21.322Z,42.03
2017-11-07T22:23:48.895Z,43.37
2017-11-07T22:26:16.765Z,47.10
2017-11-07T22:28:44.326Z,41.83
2017-11-07T22:31:11.902Z,41.77
2017-11-07T22:33:39.508Z,47.03
2017-11-07T22:36:07.216Z,47.37
2017-11-07T22:38:34.794Z,44.20
2017-11-07T22:41:02.357Z,47.43
2017-11-07T22:43:30.128Z,48.27
2017-11-07T22:45:57.688Z,43.63
2017-11-07T22:48:25.243Z,41.57
2017-11-07T22:50:52.838Z,43.73
2017-11-07T22:53:20.426Z,42.47
2017-11-07T22:55:47.991Z,42.43
2017-11-07T22:58:15.530Z,44.50
2017-11-07T23:00:43.113Z,46.13
2017-11-07T23:03:10.664Z,43.53
2017-11-07T23:05:38.217Z,42.90
2017-11-07T23:08:05.780Z,43.70
2017-11-07T23:10:33.343Z,48.20
2017-11-07T23:13:00.910Z,45.10
2017-11-07T23:15:28.506Z,49.60
2017-11-07T23:17:56.113Z,42.23
2017-11-07T23:20:23.668Z,46.50
2017-11-07T23:22:51.349Z,51.00
2017-11-07T23:25:18.914Z,47.03
2017-11-07T23:27:46.467Z,49.47
2017-11-07T23:30:14.298Z,45.90
2017-11-07T23:32:41.831Z,48.30
2017-11-07T23:35:09.377Z,48.47
2017-11-07T23:37:36.953Z,48.77
2017-11-07T23:40:04.571Z,46.60
2017-11-07T23:42:33.005Z,47.60
2017-11-07T23:45:00.641Z,53.23
2017-11-07T23:47:28.215Z,55.23
2017-11-07T23:49:55.745Z,50.07
2017-11-07T23:52:23.297Z,53.50
2017-11-07T23:54:50.859Z,51.83
2017-11-07T23:57:18.463Z,55.20
2017-11-07T23:59:46.029Z,58.40
